Hauptseite
METAR-TAF:

METAR-TAF

Flughäfen :

London, England

London City Airport

Breite: 51-30N, Länge: 000-03E, Höhe: 5 m

Beobachtung

Neuester Wetterbericht von vor 38 Minuten, um 23:20 UTC
Wind 3 kt aus Südwest
Temperatur 6°C
Luftfeuchtigkeit 75%
Luftdruck 1023 hPa
Sichtweite 10 km oder mehr
Leicht bewölkt in der Höhe von 4800 ft

METAR: EGLC 192320Z AUTO 23003KT 9999 FEW048 06/02 Q1023

Zeit: 23:58 (23:58 UTC)

Prognose

Neuester Wetterbericht von vor 6 Stunden und 56 Minuten, um 17:02 UTC
Gültige Prognose vom 19 um 18 UTC bis 19 um 22 UTC
Wind 6 kt aus West/Südwest
Sichtweite 10 km oder mehr
Leicht bewölkt in der Höhe von 4500 ft

TAF: EGLC 191702Z 1918/1922 25006KT 9999 FEW045

Wetterbeobachtungen und Prognosen von mehr als 4000 Flughäfen (METAR und TAF Bericht).

Die verfügbaren Stationen werden durch gelbe und rote Markierungen auf der Karte dargestellt.

Führen Sie die Maus auf sie, um den Namen der Station zu sehen.

Darauf klicken, um die Beobachtung von Wetterbeobachtungen und Prognosen zu sehen.

Um die Karte zu ändern : klicken Sie auf den grünen Tasten mit einem schwarzen Kreuz Zum Vergrößern, auf den grünen Button mit einem Gedankenstrich zu verkleinern, oder auf die grünen Pfeile für benachbarte Karten.


METAR-TAF: